sensor_id;sensor_type;location;lat;lon;timestamp;temperature;humidity
41262;DHT22;29629;52.532;13.352;2023-07-20T00:01:07;18.60;99.90
41262;DHT22;29629;52.532;13.352;2023-07-20T00:03:34;18.70;99.90
41262;DHT22;29629;52.532;13.352;2023-07-20T00:06:01;18.70;99.90
41262;DHT22;29629;52.532;13.352;2023-07-20T00:08:31;18.70;99.90
41262;DHT22;29629;52.532;13.352;2023-07-20T00:10:58;18.60;99.90
41262;DHT22;29629;52.532;13.352;2023-07-20T00:13:25;18.60;99.90
41262;DHT22;29629;52.532;13.352;2023-07-20T00:15:52;18.70;99.90
41262;DHT22;29629;52.532;13.352;2023-07-20T00:18:19;18.60;99.90
41262;DHT22;29629;52.532;13.352;2023-07-20T00:20:47;18.60;99.90
41262;DHT22;29629;52.532;13.352;2023-07-20T00:23:14;18.60;99.90
41262;DHT22;29629;52.532;13.352;2023-07-20T00:25:42;18.50;99.90
41262;DHT22;29629;52.532;13.352;2023-07-20T00:28:09;18.50;99.90
41262;DHT22;29629;52.532;13.352;2023-07-20T00:30:38;18.60;99.90
41262;DHT22;29629;52.532;13.352;2023-07-20T00:33:05;18.60;99.90
41262;DHT22;29629;52.532;13.352;2023-07-20T00:35:33;18.60;99.90
41262;DHT22;29629;52.532;13.352;2023-07-20T00:38:00;18.70;99.90
41262;DHT22;29629;52.532;13.352;2023-07-20T00:40:27;18.70;99.90
41262;DHT22;29629;52.532;13.352;2023-07-20T00:42:56;18.70;99.90
41262;DHT22;29629;52.532;13.352;2023-07-20T00:45:27;18.70;99.90
41262;DHT22;29629;52.532;13.352;2023-07-20T00:47:54;18.60;99.90
41262;DHT22;29629;52.532;13.352;2023-07-20T00:50:21;18.50;99.90
41262;DHT22;29629;52.532;13.352;2023-07-20T00:52:48;18.50;99.90
41262;DHT22;29629;52.532;13.352;2023-07-20T00:55:16;18.40;99.90
41262;DHT22;29629;52.532;13.352;2023-07-20T00:57:43;18.30;99.90
41262;DHT22;29629;52.532;13.352;2023-07-20T01:00:12;18.20;99.90
41262;DHT22;29629;52.532;13.352;2023-07-20T01:02:39;18.20;99.90
41262;DHT22;29629;52.532;13.352;2023-07-20T01:05:07;18.00;99.90
41262;DHT22;29629;52.532;13.352;2023-07-20T01:07:37;17.90;99.90
41262;DHT22;29629;52.532;13.352;2023-07-20T01:10:12;18.00;99.90
41262;DHT22;29629;52.532;13.352;2023-07-20T01:12:47;17.90;99.90
41262;DHT22;29629;52.532;13.352;2023-07-20T01:15:16;17.90;99.90
41262;DHT22;29629;52.532;13.352;2023-07-20T01:17:43;17.90;99.90
41262;DHT22;29629;52.532;13.352;2023-07-20T01:20:13;17.90;99.90
41262;DHT22;29629;52.532;13.352;2023-07-20T01:22:52;17.80;99.90
41262;DHT22;29629;52.532;13.352;2023-07-20T01:25:41;17.80;99.90
41262;DHT22;29629;52.532;13.352;2023-07-20T01:28:28;17.70;99.90
41262;DHT22;29629;52.532;13.352;2023-07-20T01:31:21;17.60;99.90
41262;DHT22;29629;52.532;13.352;2023-07-20T01:33:51;17.70;99.90
41262;DHT22;29629;52.532;13.352;2023-07-20T01:36:19;17.70;99.90
41262;DHT22;29629;52.532;13.352;2023-07-20T01:38:48;17.60;99.90
41262;DHT22;29629;52.532;13.352;2023-07-20T01:41:15;17.70;99.90
41262;DHT22;29629;52.532;13.352;2023-07-20T01:43:43;17.70;99.90
41262;DHT22;29629;52.532;13.352;2023-07-20T01:46:11;17.70;99.90
41262;DHT22;29629;52.532;13.352;2023-07-20T01:48:38;17.70;99.90
41262;DHT22;29629;52.532;13.352;2023-07-20T01:51:05;17.70;99.90
41262;DHT22;29629;52.532;13.352;2023-07-20T01:53:31;17.60;99.90
41262;DHT22;29629;52.532;13.352;2023-07-20T01:55:58;17.70;99.90
41262;DHT22;29629;52.532;13.352;2023-07-20T01:58:25;17.70;99.90
41262;DHT22;29629;52.532;13.352;2023-07-20T02:00:52;17.60;99.90
41262;DHT22;29629;52.532;13.352;2023-07-20T02:03:20;17.70;99.90
41262;DHT22;29629;52.532;13.352;2023-07-20T02:05:49;17.70;99.90
41262;DHT22;29629;52.532;13.352;2023-07-20T02:08:16;17.70;99.90
41262;DHT22;29629;52.532;13.352;2023-07-20T02:10:45;17.60;99.90
41262;DHT22;29629;52.532;13.352;2023-07-20T02:13:12;17.70;99.90
41262;DHT22;29629;52.532;13.352;2023-07-20T02:15:39;17.60;99.90
41262;DHT22;29629;52.532;13.352;2023-07-20T02:18:06;17.60;99.90
41262;DHT22;29629;52.532;13.352;2023-07-20T02:20:35;17.60;99.90
41262;DHT22;29629;52.532;13.352;2023-07-20T02:23:02;17.50;99.90
41262;DHT22;29629;52.532;13.352;2023-07-20T02:25:27;17.50;99.90
41262;DHT22;29629;52.532;13.352;2023-07-20T02:27:56;17.60;99.90
41262;DHT22;29629;52.532;13.352;2023-07-20T02:30:23;17.60;99.90
41262;DHT22;29629;52.532;13.352;2023-07-20T02:32:50;17.50;99.90
41262;DHT22;29629;52.532;13.352;2023-07-20T02:35:17;17.60;99.90
41262;DHT22;29629;52.532;13.352;2023-07-20T02:37:46;17.50;99.90
41262;DHT22;29629;52.532;13.352;2023-07-20T02:40:13;17.40;99.90
41262;DHT22;29629;52.532;13.352;2023-07-20T02:42:39;17.40;99.90
41262;DHT22;29629;52.532;13.352;2023-07-20T02:45:07;17.50;99.90
41262;DHT22;29629;52.532;13.352;2023-07-20T02:47:34;17.40;99.90
41262;DHT22;29629;52.532;13.352;2023-07-20T02:50:01;17.50;99.90
41262;DHT22;29629;52.532;13.352;2023-07-20T02:52:28;17.50;99.90
41262;DHT22;29629;52.532;13.352;2023-07-20T02:54:57;17.50;99.90
41262;DHT22;29629;52.532;13.352;2023-07-20T02:57:24;17.40;99.90
41262;DHT22;29629;52.532;13.352;2023-07-20T02:59:51;17.50;99.90
41262;DHT22;29629;52.532;13.352;2023-07-20T03:02:18;17.40;99.90
41262;DHT22;29629;52.532;13.352;2023-07-20T03:04:44;17.30;99.90
41262;DHT22;29629;52.532;13.352;2023-07-20T03:07:11;17.30;99.90
41262;DHT22;29629;52.532;13.352;2023-07-20T03:09:38;17.30;99.90
41262;DHT22;29629;52.532;13.352;2023-07-20T03:12:08;17.40;99.90
41262;DHT22;29629;52.532;13.352;2023-07-20T03:14:35;17.40;99.90
41262;DHT22;29629;52.532;13.352;2023-07-20T03:17:02;17.50;99.90
41262;DHT22;29629;52.532;13.352;2023-07-20T03:19:30;17.50;99.90
41262;DHT22;29629;52.532;13.352;2023-07-20T03:21:57;17.60;99.90
41262;DHT22;29629;52.532;13.352;2023-07-20T03:24:24;17.50;99.90
41262;DHT22;29629;52.532;13.352;2023-07-20T03:26:51;17.50;99.90
41262;DHT22;29629;52.532;13.352;2023-07-20T03:29:19;17.60;99.90
41262;DHT22;29629;52.532;13.352;2023-07-20T03:31:46;17.60;99.90
41262;DHT22;29629;52.532;13.352;2023-07-20T03:34:13;17.60;99.90
41262;DHT22;29629;52.532;13.352;2023-07-20T03:36:40;17.40;99.90
41262;DHT22;29629;52.532;13.352;2023-07-20T03:39:07;17.50;99.90
41262;DHT22;29629;52.532;13.352;2023-07-20T03:41:34;17.40;99.90
41262;DHT22;29629;52.532;13.352;2023-07-20T03:44:02;17.50;99.90
41262;DHT22;29629;52.532;13.352;2023-07-20T03:46:31;17.60;99.90
41262;DHT22;29629;52.532;13.352;2023-07-20T03:48:59;17.50;99.90
41262;DHT22;29629;52.532;13.352;2023-07-20T03:51:26;17.60;99.90
41262;DHT22;29629;52.532;13.352;2023-07-20T03:53:53;17.50;99.90
41262;DHT22;29629;52.532;13.352;2023-07-20T03:56:20;17.40;99.90
41262;DHT22;29629;52.532;13.352;2023-07-20T03:58:47;17.40;99.90
41262;DHT22;29629;52.532;13.352;2023-07-20T04:01:14;17.40;99.90
41262;DHT22;29629;52.532;13.352;2023-07-20T04:03:43;17.50;99.90
41262;DHT22;29629;52.532;13.352;2023-07-20T04:06:10;17.70;99.90
41262;DHT22;29629;52.532;13.352;2023-07-20T04:08:39;17.60;99.90
41262;DHT22;29629;52.532;13.352;2023-07-20T04:11:06;17.60;99.90
41262;DHT22;29629;52.532;13.352;2023-07-20T04:13:33;17.60;99.90
41262;DHT22;29629;52.532;13.352;2023-07-20T04:16:00;17.60;99.90
41262;DHT22;29629;52.532;13.352;2023-07-20T04:18:28;17.70;99.90
41262;DHT22;29629;52.532;13.352;2023-07-20T04:20:56;17.50;99.90
41262;DHT22;29629;52.532;13.352;2023-07-20T04:23:23;17.60;99.90
41262;DHT22;29629;52.532;13.352;2023-07-20T04:25:51;17.60;99.90
41262;DHT22;29629;52.532;13.352;2023-07-20T04:28:17;17.50;99.90
41262;DHT22;29629;52.532;13.352;2023-07-20T04:30:44;17.50;99.90
41262;DHT22;29629;52.532;13.352;2023-07-20T04:33:11;17.60;99.90
41262;DHT22;29629;52.532;13.352;2023-07-20T04:35:49;17.40;99.90
41262;DHT22;29629;52.532;13.352;2023-07-20T04:38:17;17.60;99.90
41262;DHT22;29629;52.532;13.352;2023-07-20T04:40:45;17.80;99.90
41262;DHT22;29629;52.532;13.352;2023-07-20T04:43:12;17.80;99.90
41262;DHT22;29629;52.532;13.352;2023-07-20T04:45:39;17.60;99.90
41262;DHT22;29629;52.532;13.352;2023-07-20T04:48:09;17.70;99.90
41262;DHT22;29629;52.532;13.352;2023-07-20T04:50:36;17.70;99.90
41262;DHT22;29629;52.532;13.352;2023-07-20T04:53:03;17.60;99.90
41262;DHT22;29629;52.532;13.352;2023-07-20T04:55:32;17.60;99.90
41262;DHT22;29629;52.532;13.352;2023-07-20T04:58:00;17.70;99.90
41262;DHT22;29629;52.532;13.352;2023-07-20T05:00:27;17.60;99.90
41262;DHT22;29629;52.532;13.352;2023-07-20T05:02:54;17.60;99.90
41262;DHT22;29629;52.532;13.352;2023-07-20T05:05:21;17.80;99.90
41262;DHT22;29629;52.532;13.352;2023-07-20T05:07:48;17.80;99.90
41262;DHT22;29629;52.532;13.352;2023-07-20T05:10:15;17.80;99.90
41262;DHT22;29629;52.532;13.352;2023-07-20T05:12:43;17.70;99.90
41262;DHT22;29629;52.532;13.352;2023-07-20T05:15:10;17.60;99.90
41262;DHT22;29629;52.532;13.352;2023-07-20T05:17:37;17.60;99.90
41262;DHT22;29629;52.532;13.352;2023-07-20T05:20:05;17.80;99.90
41262;DHT22;29629;52.532;13.352;2023-07-20T05:22:35;17.90;99.90
41262;DHT22;29629;52.532;13.352;2023-07-20T05:25:06;17.70;99.90
41262;DHT22;29629;52.532;13.352;2023-07-20T05:27:33;17.80;99.90
41262;DHT22;29629;52.532;13.352;2023-07-20T05:30:01;17.80;99.90
41262;DHT22;29629;52.532;13.352;2023-07-20T05:32:29;18.00;99.90
41262;DHT22;29629;52.532;13.352;2023-07-20T05:34:56;18.00;99.90
41262;DHT22;29629;52.532;13.352;2023-07-20T05:37:23;18.20;99.90
41262;DHT22;29629;52.532;13.352;2023-07-20T05:39:50;18.30;99.90
41262;DHT22;29629;52.532;13.352;2023-07-20T05:42:17;18.40;99.90
41262;DHT22;29629;52.532;13.352;2023-07-20T05:44:43;18.60;99.90
41262;DHT22;29629;52.532;13.352;2023-07-20T05:47:12;18.70;99.90
41262;DHT22;29629;52.532;13.352;2023-07-20T05:49:39;18.70;99.90
41262;DHT22;29629;52.532;13.352;2023-07-20T05:52:06;19.00;99.90
41262;DHT22;29629;52.532;13.352;2023-07-20T05:54:33;18.90;99.90
41262;DHT22;29629;52.532;13.352;2023-07-20T05:57:00;18.90;99.90
41262;DHT22;29629;52.532;13.352;2023-07-20T05:59:27;18.90;99.90
41262;DHT22;29629;52.532;13.352;2023-07-20T06:01:55;19.00;99.90
41262;DHT22;29629;52.532;13.352;2023-07-20T06:04:23;18.80;99.90
41262;DHT22;29629;52.532;13.352;2023-07-20T06:06:50;19.00;99.90
41262;DHT22;29629;52.532;13.352;2023-07-20T06:09:17;18.80;99.90
41262;DHT22;29629;52.532;13.352;2023-07-20T06:11:44;18.70;99.90
41262;DHT22;29629;52.532;13.352;2023-07-20T06:14:11;18.70;99.90
41262;DHT22;29629;52.532;13.352;2023-07-20T06:16:38;19.00;99.90
41262;DHT22;29629;52.532;13.352;2023-07-20T06:19:05;18.90;99.90
41262;DHT22;29629;52.532;13.352;2023-07-20T06:21:33;18.90;99.90
41262;DHT22;29629;52.532;13.352;2023-07-20T06:24:00;19.10;99.90
41262;DHT22;29629;52.532;13.352;2023-07-20T06:26:27;19.10;99.90
41262;DHT22;29629;52.532;13.352;2023-07-20T06:28:55;19.00;99.90
41262;DHT22;29629;52.532;13.352;2023-07-20T06:31:22;19.20;99.90
41262;DHT22;29629;52.532;13.352;2023-07-20T06:33:49;19.20;99.90
41262;DHT22;29629;52.532;13.352;2023-07-20T06:36:18;19.40;99.90
41262;DHT22;29629;52.532;13.352;2023-07-20T06:38:47;19.20;99.90
41262;DHT22;29629;52.532;13.352;2023-07-20T06:41:13;19.40;99.90
41262;DHT22;29629;52.532;13.352;2023-07-20T06:43:40;19.40;99.90
41262;DHT22;29629;52.532;13.352;2023-07-20T06:46:07;19.50;99.90
41262;DHT22;29629;52.532;13.352;2023-07-20T06:48:34;19.40;99.90
41262;DHT22;29629;52.532;13.352;2023-07-20T06:51:01;19.50;99.90
41262;DHT22;29629;52.532;13.352;2023-07-20T06:53:28;19.70;99.90
41262;DHT22;29629;52.532;13.352;2023-07-20T06:55:56;20.00;99.90
41262;DHT22;29629;52.532;13.352;2023-07-20T06:58:23;20.20;99.90
41262;DHT22;29629;52.532;13.352;2023-07-20T07:00:51;20.20;99.90
41262;DHT22;29629;52.532;13.352;2023-07-20T07:03:18;20.00;99.90
41262;DHT22;29629;52.532;13.352;2023-07-20T07:05:47;19.90;99.90
41262;DHT22;29629;52.532;13.352;2023-07-20T07:08:14;19.80;99.90
41262;DHT22;29629;52.532;13.352;2023-07-20T07:10:41;20.20;99.90
41262;DHT22;29629;52.532;13.352;2023-07-20T07:13:09;20.40;99.90
41262;DHT22;29629;52.532;13.352;2023-07-20T07:15:36;20.70;99.90
41262;DHT22;29629;52.532;13.352;2023-07-20T07:18:03;21.00;99.90
41262;DHT22;29629;52.532;13.352;2023-07-20T07:20:30;21.30;99.90
41262;DHT22;29629;52.532;13.352;2023-07-20T07:22:57;21.40;99.90
41262;DHT22;29629;52.532;13.352;2023-07-20T07:25:24;21.70;99.90
41262;DHT22;29629;52.532;13.352;2023-07-20T07:27:53;22.00;99.90
41262;DHT22;29629;52.532;13.352;2023-07-20T07:30:22;21.90;99.90
41262;DHT22;29629;52.532;13.352;2023-07-20T07:32:49;21.90;99.90
41262;DHT22;29629;52.532;13.352;2023-07-20T07:35:16;22.00;99.90
41262;DHT22;29629;52.532;13.352;2023-07-20T07:37:43;22.00;99.90
41262;DHT22;29629;52.532;13.352;2023-07-20T07:40:12;22.10;99.90
41262;DHT22;29629;52.532;13.352;2023-07-20T07:42:39;22.00;99.90
41262;DHT22;29629;52.532;13.352;2023-07-20T07:45:07;22.10;99.90
41262;DHT22;29629;52.532;13.352;2023-07-20T07:47:35;22.10;99.90
41262;DHT22;29629;52.532;13.352;2023-07-20T07:50:02;22.50;99.90
41262;DHT22;29629;52.532;13.352;2023-07-20T07:52:29;22.90;99.90
41262;DHT22;29629;52.532;13.352;2023-07-20T07:54:57;22.70;99.90
41262;DHT22;29629;52.532;13.352;2023-07-20T07:57:26;22.50;99.90
41262;DHT22;29629;52.532;13.352;2023-07-20T07:59:53;22.10;99.90
41262;DHT22;29629;52.532;13.352;2023-07-20T08:02:20;22.40;99.90
41262;DHT22;29629;52.532;13.352;2023-07-20T08:04:48;22.60;99.90
41262;DHT22;29629;52.532;13.352;2023-07-20T08:07:17;22.80;99.90
41262;DHT22;29629;52.532;13.352;2023-07-20T08:09:44;22.50;99.90
41262;DHT22;29629;52.532;13.352;2023-07-20T08:12:11;22.30;99.90
41262;DHT22;29629;52.532;13.352;2023-07-20T08:14:39;22.30;99.90
41262;DHT22;29629;52.532;13.352;2023-07-20T08:17:05;22.30;99.90
41262;DHT22;29629;52.532;13.352;2023-07-20T08:19:32;22.20;99.90
41262;DHT22;29629;52.532;13.352;2023-07-20T08:22:02;21.90;99.90
41262;DHT22;29629;52.532;13.352;2023-07-20T08:24:29;22.10;99.90
41262;DHT22;29629;52.532;13.352;2023-07-20T08:26:56;22.30;99.90
41262;DHT22;29629;52.532;13.352;2023-07-20T08:29:24;22.60;99.90
41262;DHT22;29629;52.532;13.352;2023-07-20T08:31:50;23.10;99.90
41262;DHT22;29629;52.532;13.352;2023-07-20T08:34:17;23.30;99.90
41262;DHT22;29629;52.532;13.352;2023-07-20T08:36:44;23.20;99.90
41262;DHT22;29629;52.532;13.352;2023-07-20T08:39:13;23.00;99.90
41262;DHT22;29629;52.532;13.352;2023-07-20T08:41:41;23.10;99.90
41262;DHT22;29629;52.532;13.352;2023-07-20T08:44:10;23.00;99.90
41262;DHT22;29629;52.532;13.352;2023-07-20T08:46:38;23.40;99.90
41262;DHT22;29629;52.532;13.352;2023-07-20T08:49:06;23.10;99.90
41262;DHT22;29629;52.532;13.352;2023-07-20T08:51:33;23.10;99.90
41262;DHT22;29629;52.532;13.352;2023-07-20T08:54:01;23.30;99.90
41262;DHT22;29629;52.532;13.352;2023-07-20T08:56:31;23.40;99.90
41262;DHT22;29629;52.532;13.352;2023-07-20T08:59:01;23.90;99.90
41262;DHT22;29629;52.532;13.352;2023-07-20T09:01:28;23.30;99.90
41262;DHT22;29629;52.532;13.352;2023-07-20T09:03:56;23.80;99.90
41262;DHT22;29629;52.532;13.352;2023-07-20T09:06:23;24.10;99.90
41262;DHT22;29629;52.532;13.352;2023-07-20T09:08:50;23.60;99.90
41262;DHT22;29629;52.532;13.352;2023-07-20T09:11:17;23.60;99.90
41262;DHT22;29629;52.532;13.352;2023-07-20T09:13:45;24.10;99.90
41262;DHT22;29629;52.532;13.352;2023-07-20T09:16:13;24.70;99.90
41262;DHT22;29629;52.532;13.352;2023-07-20T09:18:41;24.60;99.90
41262;DHT22;29629;52.532;13.352;2023-07-20T09:21:09;24.30;99.90
41262;DHT22;29629;52.532;13.352;2023-07-20T09:23:37;24.30;99.90
41262;DHT22;29629;52.532;13.352;2023-07-20T09:26:10;24.30;99.90
41262;DHT22;29629;52.532;13.352;2023-07-20T09:28:42;25.10;99.90
41262;DHT22;29629;52.532;13.352;2023-07-20T09:31:17;25.20;99.90
41262;DHT22;29629;52.532;13.352;2023-07-20T09:33:44;25.60;99.90
41262;DHT22;29629;52.532;13.352;2023-07-20T09:36:11;25.00;99.90
41262;DHT22;29629;52.532;13.352;2023-07-20T09:38:38;24.40;99.90
41262;DHT22;29629;52.532;13.352;2023-07-20T09:41:06;23.50;99.90
41262;DHT22;29629;52.532;13.352;2023-07-20T09:43:34;23.40;99.90
41262;DHT22;29629;52.532;13.352;2023-07-20T09:46:01;22.60;99.90
41262;DHT22;29629;52.532;13.352;2023-07-20T09:48:29;22.20;99.90
41262;DHT22;29629;52.532;13.352;2023-07-20T09:50:57;22.30;99.90
41262;DHT22;29629;52.532;13.352;2023-07-20T09:53:25;22.10;99.90
41262;DHT22;29629;52.532;13.352;2023-07-20T09:55:52;21.80;99.90
41262;DHT22;29629;52.532;13.352;2023-07-20T09:58:21;21.60;99.90
41262;DHT22;29629;52.532;13.352;2023-07-20T10:00:51;21.50;99.90
41262;DHT22;29629;52.532;13.352;2023-07-20T10:03:20;21.40;99.90
41262;DHT22;29629;52.532;13.352;2023-07-20T10:05:54;21.40;99.90
41262;DHT22;29629;52.532;13.352;2023-07-20T10:08:24;21.30;99.90
41262;DHT22;29629;52.532;13.352;2023-07-20T10:10:51;21.30;99.90
41262;DHT22;29629;52.532;13.352;2023-07-20T10:13:29;21.40;99.90
41262;DHT22;29629;52.532;13.352;2023-07-20T10:16:01;21.30;99.90
41262;DHT22;29629;52.532;13.352;2023-07-20T10:18:31;21.50;99.90
41262;DHT22;29629;52.532;13.352;2023-07-20T10:21:02;21.60;99.90
41262;DHT22;29629;52.532;13.352;2023-07-20T10:23:29;21.40;99.90
41262;DHT22;29629;52.532;13.352;2023-07-20T10:25:57;21.50;99.90
41262;DHT22;29629;52.532;13.352;2023-07-20T10:28:25;21.30;99.90
41262;DHT22;29629;52.532;13.352;2023-07-20T10:30:53;21.30;99.90
41262;DHT22;29629;52.532;13.352;2023-07-20T10:33:20;21.30;99.90
41262;DHT22;29629;52.532;13.352;2023-07-20T10:35:51;21.50;99.90
41262;DHT22;29629;52.532;13.352;2023-07-20T10:38:20;21.50;99.90
41262;DHT22;29629;52.532;13.352;2023-07-20T10:41:04;21.50;99.90
41262;DHT22;29629;52.532;13.352;2023-07-20T10:43:42;21.60;99.90
41262;DHT22;29629;52.532;13.352;2023-07-20T10:46:11;21.50;99.90
41262;DHT22;29629;52.532;13.352;2023-07-20T10:48:59;21.60;99.90
41262;DHT22;29629;52.532;13.352;2023-07-20T10:51:27;21.40;99.90
41262;DHT22;29629;52.532;13.352;2023-07-20T10:53:56;21.50;99.90
41262;DHT22;29629;52.532;13.352;2023-07-20T10:56:26;21.80;99.90
41262;DHT22;29629;52.532;13.352;2023-07-20T10:58:58;21.80;99.90
41262;DHT22;29629;52.532;13.352;2023-07-20T11:01:28;22.10;99.90
41262;DHT22;29629;52.532;13.352;2023-07-20T11:03:58;22.10;99.90
41262;DHT22;29629;52.532;13.352;2023-07-20T11:06:30;22.20;99.90
41262;DHT22;29629;52.532;13.352;2023-07-20T11:09:09;23.20;99.90
41262;DHT22;29629;52.532;13.352;2023-07-20T11:11:40;23.60;99.90
41262;DHT22;29629;52.532;13.352;2023-07-20T11:14:09;23.10;99.90
41262;DHT22;29629;52.532;13.352;2023-07-20T11:16:39;22.90;99.90
41262;DHT22;29629;52.532;13.352;2023-07-20T11:19:12;22.40;99.90
41262;DHT22;29629;52.532;13.352;2023-07-20T11:21:41;22.50;99.90
41262;DHT22;29629;52.532;13.352;2023-07-20T11:24:10;22.10;99.90
41262;DHT22;29629;52.532;13.352;2023-07-20T11:26:43;23.30;99.90
41262;DHT22;29629;52.532;13.352;2023-07-20T11:29:11;24.20;99.90
41262;DHT22;29629;52.532;13.352;2023-07-20T11:31:39;24.60;99.90
41262;DHT22;29629;52.532;13.352;2023-07-20T11:36:35;27.90;99.90
41262;DHT22;29629;52.532;13.352;2023-07-20T11:39:02;28.80;99.90
41262;DHT22;29629;52.532;13.352;2023-07-20T11:41:32;27.70;99.90
41262;DHT22;29629;52.532;13.352;2023-07-20T11:43:58;28.20;99.90
41262;DHT22;29629;52.532;13.352;2023-07-20T11:46:25;28.30;99.90
41262;DHT22;29629;52.532;13.352;2023-07-20T11:48:59;26.90;99.90
41262;DHT22;29629;52.532;13.352;2023-07-20T11:51:27;25.90;99.90
41262;DHT22;29629;52.532;13.352;2023-07-20T11:53:54;26.80;99.90
41262;DHT22;29629;52.532;13.352;2023-07-20T11:56:22;26.20;99.90
41262;DHT22;29629;52.532;13.352;2023-07-20T11:58:54;25.60;99.90
41262;DHT22;29629;52.532;13.352;2023-07-20T12:01:22;24.90;99.90
41262;DHT22;29629;52.532;13.352;2023-07-20T12:03:50;24.30;99.90
41262;DHT22;29629;52.532;13.352;2023-07-20T12:06:17;23.90;99.90
41262;DHT22;29629;52.532;13.352;2023-07-20T12:08:44;23.50;99.90
41262;DHT22;29629;52.532;13.352;2023-07-20T12:11:11;23.20;99.90
41262;DHT22;29629;52.532;13.352;2023-07-20T12:13:40;23.00;99.90
41262;DHT22;29629;52.532;13.352;2023-07-20T12:16:10;22.70;99.90
41262;DHT22;29629;52.532;13.352;2023-07-20T12:18:38;22.80;99.90
41262;DHT22;29629;52.532;13.352;2023-07-20T12:21:06;22.70;99.90
41262;DHT22;29629;52.532;13.352;2023-07-20T12:23:37;22.80;99.90
41262;DHT22;29629;52.532;13.352;2023-07-20T12:26:08;23.50;99.90
41262;DHT22;29629;52.532;13.352;2023-07-20T12:28:39;23.40;99.90
41262;DHT22;29629;52.532;13.352;2023-07-20T12:31:06;23.00;99.90
41262;DHT22;29629;52.532;13.352;2023-07-20T12:33:35;22.80;99.90
41262;DHT22;29629;52.532;13.352;2023-07-20T12:36:02;22.80;99.90
41262;DHT22;29629;52.532;13.352;2023-07-20T12:38:29;22.70;99.90
41262;DHT22;29629;52.532;13.352;2023-07-20T12:40:57;22.70;99.90
41262;DHT22;29629;52.532;13.352;2023-07-20T12:43:26;24.40;99.90
41262;DHT22;29629;52.532;13.352;2023-07-20T12:45:53;26.40;99.90
41262;DHT22;29629;52.532;13.352;2023-07-20T12:48:20;26.20;99.90
41262;DHT22;29629;52.532;13.352;2023-07-20T12:50:48;26.60;99.90
41262;DHT22;29629;52.532;13.352;2023-07-20T12:53:16;26.40;99.90
41262;DHT22;29629;52.532;13.352;2023-07-20T12:55:43;27.20;99.90
41262;DHT22;29629;52.532;13.352;2023-07-20T12:58:11;27.40;99.90
41262;DHT22;29629;52.532;13.352;2023-07-20T13:00:38;27.80;99.90
41262;DHT22;29629;52.532;13.352;2023-07-20T13:03:05;28.40;99.90
41262;DHT22;29629;52.532;13.352;2023-07-20T13:05:34;28.70;99.90
41262;DHT22;29629;52.532;13.352;2023-07-20T13:08:03;29.20;99.90
41262;DHT22;29629;52.532;13.352;2023-07-20T13:10:31;29.20;99.90
41262;DHT22;29629;52.532;13.352;2023-07-20T13:13:00;28.70;99.50
41262;DHT22;29629;52.532;13.352;2023-07-20T13:15:30;28.00;98.00
41262;DHT22;29629;52.532;13.352;2023-07-20T13:17:58;27.90;97.80
41262;DHT22;29629;52.532;13.352;2023-07-20T13:20:26;27.80;99.10
41262;DHT22;29629;52.532;13.352;2023-07-20T13:22:53;27.90;97.40
41262;DHT22;29629;52.532;13.352;2023-07-20T13:25:22;27.30;96.70
41262;DHT22;29629;52.532;13.352;2023-07-20T13:27:49;27.10;97.30
41262;DHT22;29629;52.532;13.352;2023-07-20T13:30:15;26.60;96.50
41262;DHT22;29629;52.532;13.352;2023-07-20T13:32:43;26.60;98.10
41262;DHT22;29629;52.532;13.352;2023-07-20T13:35:10;26.60;96.80
41262;DHT22;29629;52.532;13.352;2023-07-20T13:37:37;26.50;97.40
41262;DHT22;29629;52.532;13.352;2023-07-20T13:40:05;26.40;97.60
41262;DHT22;29629;52.532;13.352;2023-07-20T13:42:35;26.40;98.00
41262;DHT22;29629;52.532;13.352;2023-07-20T13:45:03;25.90;97.20
41262;DHT22;29629;52.532;13.352;2023-07-20T13:47:30;25.90;97.10
41262;DHT22;29629;52.532;13.352;2023-07-20T13:49:57;25.80;98.20
41262;DHT22;29629;52.532;13.352;2023-07-20T13:52:24;25.70;98.00
41262;DHT22;29629;52.532;13.352;2023-07-20T13:54:51;25.90;98.20
41262;DHT22;29629;52.532;13.352;2023-07-20T13:57:18;25.50;97.70
41262;DHT22;29629;52.532;13.352;2023-07-20T13:59:46;25.60;97.70
41262;DHT22;29629;52.532;13.352;2023-07-20T14:02:14;25.80;98.70
41262;DHT22;29629;52.532;13.352;2023-07-20T14:04:41;25.60;97.50
41262;DHT22;29629;52.532;13.352;2023-07-20T14:07:08;25.60;98.30
41262;DHT22;29629;52.532;13.352;2023-07-20T14:09:36;25.90;99.10
41262;DHT22;29629;52.532;13.352;2023-07-20T14:12:04;25.80;98.20
41262;DHT22;29629;52.532;13.352;2023-07-20T14:14:32;25.90;99.30
41262;DHT22;29629;52.532;13.352;2023-07-20T14:17:00;25.80;98.90
41262;DHT22;29629;52.532;13.352;2023-07-20T14:19:27;25.60;97.20
41262;DHT22;29629;52.532;13.352;2023-07-20T14:21:54;25.30;96.60
41262;DHT22;29629;52.532;13.352;2023-07-20T14:24:21;25.30;96.70
41262;DHT22;29629;52.532;13.352;2023-07-20T14:26:48;24.90;96.60
41262;DHT22;29629;52.532;13.352;2023-07-20T14:29:14;25.00;97.40
41262;DHT22;29629;52.532;13.352;2023-07-20T14:31:43;25.20;97.20
41262;DHT22;29629;52.532;13.352;2023-07-20T14:34:11;24.70;97.30
41262;DHT22;29629;52.532;13.352;2023-07-20T14:36:40;24.90;97.50
41262;DHT22;29629;52.532;13.352;2023-07-20T14:39:07;24.80;97.10
41262;DHT22;29629;52.532;13.352;2023-07-20T14:41:34;24.70;97.30
41262;DHT22;29629;52.532;13.352;2023-07-20T14:44:01;24.80;97.00
41262;DHT22;29629;52.532;13.352;2023-07-20T14:46:28;24.70;97.20
41262;DHT22;29629;52.532;13.352;2023-07-20T14:48:57;24.50;96.60
41262;DHT22;29629;52.532;13.352;2023-07-20T14:51:26;24.50;97.70
41262;DHT22;29629;52.532;13.352;2023-07-20T14:53:57;24.50;97.60
41262;DHT22;29629;52.532;13.352;2023-07-20T14:56:24;24.50;96.80
41262;DHT22;29629;52.532;13.352;2023-07-20T14:58:51;24.40;97.20
41262;DHT22;29629;52.532;13.352;2023-07-20T15:01:18;24.40;96.90
41262;DHT22;29629;52.532;13.352;2023-07-20T15:03:44;24.30;97.30
41262;DHT22;29629;52.532;13.352;2023-07-20T15:06:11;24.30;97.20
41262;DHT22;29629;52.532;13.352;2023-07-20T15:08:40;24.30;97.30
41262;DHT22;29629;52.532;13.352;2023-07-20T15:11:06;24.30;97.30
41262;DHT22;29629;52.532;13.352;2023-07-20T15:13:33;24.30;97.80
41262;DHT22;29629;52.532;13.352;2023-07-20T15:16:00;24.20;97.60
41262;DHT22;29629;52.532;13.352;2023-07-20T15:18:27;24.30;97.90
41262;DHT22;29629;52.532;13.352;2023-07-20T15:20:54;24.10;97.70
41262;DHT22;29629;52.532;13.352;2023-07-20T15:23:21;23.90;97.70